KSBP/SBP METAR and TAF weather

Enter ICAO airport designator
Station Type Date Time Source
KSBP METAR 2019/08/18 08:56 UTC NOAA

KSBP 180856Z AUTO 29004KT 10SM OVC012 16/13 A2989 RMK AO2 SLP118 T01560128 50000


Station Type Date Time Source
KSBP Decoded METAR 2019/08/18 08:56 UTC NOAA

Station name not available
Aug 18, 2019 - 04:56 AM EDT / 2019.08.18 0856 UTC
Wind: from the WNW (290 degrees) at 5 MPH (4 KT):0
Visibility: 10 mile(s):0
Sky conditions: overcast
Temperature: 60.1 F (15.6 C)
Dew Point: 55.0 F (12.8 C)
Relative Humidity: 83%
Pressure (altimeter): 29.89 in. Hg (1012 hPa)
Pressure tendency: 0.00 inches (0.0 hPa) higher than three hours ago
ob: KSBP 180856Z AUTO 29004KT 10SM OVC012 16/13 A2989 RMK AO2 SLP118 T01560128 50000
cycle: 9

Station Type Date Time Source
KSBP TAF 2019/08/18 06:30 UTC NOAA

TAF KSBP 180528Z 1806/1906 VRB03KT P6SM OVC015
FM181000 VRB03KT 6SM BR OVC007
FM181500 VRB03KT P6SM BKN012
FM181800 VRB03KT P6SM FEW012
FM181930 24008KT P6SM SKC
FM182200 30010KT P6SM SKC
FM190300 30006KT P6SM BKN012

Example: see airport list